createdAt,value
2019-01-04T00:01:00.296Z,12.07
2019-01-04T00:03:32.345Z,12.14
2019-01-04T00:06:04.439Z,12.19
2019-01-04T00:08:36.653Z,12.23
2019-01-04T00:11:08.055Z,12.33
2019-01-04T00:13:39.470Z,12.30
2019-01-04T00:16:11.952Z,12.37
2019-01-04T00:18:46.167Z,12.31
2019-01-04T00:21:16.886Z,12.28
2019-01-04T00:23:47.330Z,12.30
2019-01-04T00:26:17.961Z,12.35
2019-01-04T00:28:51.402Z,12.55
2019-01-04T00:31:23.502Z,12.53
2019-01-04T00:33:54.109Z,12.55
2019-01-04T00:36:24.705Z,12.39
2019-01-04T00:38:55.736Z,12.48
2019-01-04T00:41:29.445Z,12.46
2019-01-04T00:44:00.756Z,12.46
2019-01-04T00:46:32.716Z,12.27
2019-01-04T00:49:03.942Z,12.48
2019-01-04T00:51:35.782Z,12.29
2019-01-04T00:54:08.406Z,12.28
2019-01-04T00:57:15.052Z,12.27
2019-01-04T01:00:26.987Z,12.42
2019-01-04T01:03:49.484Z,12.42
2019-01-04T01:06:54.437Z,12.18
2019-01-04T01:10:09.011Z,12.30
2019-01-04T01:13:18.592Z,12.06
2019-01-04T01:16:35.053Z,12.08
2019-01-04T01:20:04.356Z,12.18
2019-01-04T01:23:25.008Z,11.96
2019-01-04T01:26:51.444Z,12.04
2019-01-04T01:29:55.302Z,12.00
2019-01-04T01:33:22.358Z,11.83
2019-01-04T01:36:21.217Z,11.78
2019-01-04T01:39:54.456Z,11.88
2019-01-04T01:43:02.231Z,11.94
2019-01-04T01:46:14.654Z,11.67
2019-01-04T01:49:49.335Z,11.81
2019-01-04T01:52:26.799Z,11.84
2019-01-04T01:54:58.872Z,11.84
2019-01-04T01:57:31.557Z,11.88
2019-01-04T02:00:02.897Z,11.66
2019-01-04T02:02:34.536Z,11.81
2019-01-04T02:05:06.420Z,11.73
2019-01-04T02:07:39.780Z,11.79
2019-01-04T02:10:11.883Z,11.79
2019-01-04T02:12:44.838Z,11.68
2019-01-04T02:15:16.837Z,11.53
2019-01-04T02:17:48.534Z,11.43
2019-01-04T02:20:20.684Z,11.75
2019-01-04T02:22:52.900Z,11.89
2019-01-04T02:25:23.697Z,11.83
2019-01-04T02:27:55.536Z,11.47
2019-01-04T02:30:27.105Z,11.69
2019-01-04T02:32:57.419Z,11.88
2019-01-04T02:35:28.809Z,11.77
2019-01-04T02:38:00.141Z,11.86
2019-01-04T02:40:30.440Z,11.75
2019-01-04T02:43:03.031Z,11.59
2019-01-04T02:45:35.115Z,11.55
2019-01-04T02:48:07.072Z,11.13
2019-01-04T02:50:38.398Z,11.27
2019-01-04T02:53:10.855Z,11.30
2019-01-04T02:55:42.580Z,11.18
2019-01-04T02:58:14.816Z,11.33
2019-01-04T03:00:45.846Z,11.40
2019-01-04T03:03:18.174Z,11.18
2019-01-04T03:05:49.406Z,11.13
2019-01-04T03:08:22.057Z,11.39
2019-01-04T03:10:54.509Z,11.17
2019-01-04T03:13:26.242Z,11.11
2019-01-04T03:15:57.056Z,11.11
2019-01-04T03:18:30.482Z,11.04
2019-01-04T03:21:01.546Z,11.20
2019-01-04T03:23:34.327Z,11.20
2019-01-04T03:26:06.622Z,11.34
2019-01-04T03:28:38.134Z,11.41
2019-01-04T03:31:08.873Z,11.43
2019-01-04T03:33:40.561Z,11.65
2019-01-04T03:36:12.429Z,11.72
2019-01-04T03:38:43.628Z,11.78
2019-01-04T03:41:14.248Z,11.79
2019-01-04T03:43:44.981Z,11.22
2019-01-04T03:46:16.684Z,11.42
2019-01-04T03:48:49.073Z,11.72
2019-01-04T03:51:19.380Z,11.50
2019-01-04T03:53:50.174Z,11.14
2019-01-04T03:56:21.624Z,11.46
2019-01-04T03:58:53.213Z,11.57
2019-01-04T04:01:24.760Z,11.61
2019-01-04T04:03:56.937Z,11.80
2019-01-04T04:06:28.379Z,11.71
2019-01-04T04:09:00.998Z,11.67
2019-01-04T04:11:32.355Z,11.33
2019-01-04T04:14:04.285Z,11.46
2019-01-04T04:16:35.596Z,11.70
2019-01-04T04:19:08.224Z,11.79
2019-01-04T04:21:40.447Z,11.71
2019-01-04T04:24:12.885Z,11.69
2019-01-04T04:26:46.703Z,11.36
2019-01-04T04:29:17.876Z,11.37
2019-01-04T04:31:49.522Z,11.60
2019-01-04T04:34:20.538Z,11.58
2019-01-04T04:36:52.205Z,11.75
2019-01-04T04:39:22.973Z,11.41
2019-01-04T04:41:53.563Z,11.61
2019-01-04T04:44:23.890Z,11.52
2019-01-04T04:46:54.158Z,11.71
2019-01-04T04:49:26.611Z,11.76
2019-01-04T04:51:59.349Z,11.67
2019-01-04T04:54:30.530Z,11.84
2019-01-04T04:57:01.668Z,11.66
2019-01-04T04:59:35.067Z,11.77
2019-01-04T05:02:06.679Z,11.69
2019-01-04T05:04:38.572Z,11.31
2019-01-04T05:07:10.361Z,11.67
2019-01-04T05:09:44.157Z,11.73
2019-01-04T05:12:15.285Z,11.69
2019-01-04T05:14:46.155Z,11.78
2019-01-04T05:17:16.426Z,11.55
2019-01-04T05:19:47.258Z,11.38
2019-01-04T05:22:18.939Z,11.56
2019-01-04T05:24:51.331Z,11.72
2019-01-04T05:27:24.529Z,11.65
2019-01-04T05:29:57.296Z,11.65
2019-01-04T05:32:28.713Z,11.79
2019-01-04T05:35:00.178Z,11.56
2019-01-04T05:37:31.234Z,11.76
2019-01-04T05:40:03.086Z,11.73
2019-01-04T05:42:34.158Z,11.59
2019-01-04T05:45:06.032Z,11.80
2019-01-04T05:47:37.838Z,11.69
2019-01-04T05:50:09.522Z,11.77
2019-01-04T05:52:41.674Z,11.75
2019-01-04T05:55:13.673Z,11.67
2019-01-04T05:57:45.184Z,11.73
2019-01-04T06:00:17.499Z,11.82
2019-01-04T06:02:49.115Z,11.85
2019-01-04T06:05:20.880Z,11.79
2019-01-04T06:07:56.687Z,11.96
2019-01-04T06:10:32.740Z,11.42
2019-01-04T06:13:09.430Z,11.19
2019-01-04T06:15:41.402Z,11.25
2019-01-04T06:18:11.726Z,11.53
2019-01-04T06:20:42.370Z,11.72
2019-01-04T06:23:13.374Z,11.92
2019-01-04T06:25:45.828Z,11.82
2019-01-04T06:28:17.458Z,11.89
2019-01-04T06:30:48.865Z,11.96
2019-01-04T06:33:19.968Z,11.80
2019-01-04T06:35:51.086Z,11.74
2019-01-04T06:38:21.767Z,11.69
2019-01-04T06:40:56.781Z,11.74
2019-01-04T06:43:27.963Z,11.84
2019-01-04T06:46:00.124Z,11.98
2019-01-04T06:48:31.686Z,11.84
2019-01-04T06:51:03.323Z,11.97
2019-01-04T06:53:36.777Z,12.08
2019-01-04T06:56:10.068Z,11.97
2019-01-04T06:58:40.809Z,12.11
2019-01-04T07:01:12.222Z,11.84
2019-01-04T07:03:43.167Z,11.98
2019-01-04T07:06:15.084Z,12.11
2019-01-04T07:08:48.917Z,12.04
2019-01-04T07:11:21.209Z,12.08
2019-01-04T07:13:53.595Z,12.05
2019-01-04T07:16:26.382Z,11.88
2019-01-04T07:19:00.069Z,12.01
2019-01-04T07:21:30.905Z,11.89
2019-01-04T07:24:01.438Z,11.99
2019-01-04T07:26:32.984Z,11.93
2019-01-04T07:29:03.638Z,11.90
2019-01-04T07:31:36.643Z,11.92
2019-01-04T07:34:07.535Z,11.90
2019-01-04T07:36:39.735Z,11.81
2019-01-04T07:39:10.799Z,11.88
2019-01-04T07:41:45.785Z,11.75
2019-01-04T07:44:16.377Z,11.70
2019-01-04T07:46:49.085Z,11.60
2019-01-04T07:49:19.749Z,11.56
2019-01-04T07:51:51.415Z,11.31
2019-01-04T07:54:22.865Z,10.59
2019-01-04T07:56:55.680Z,11.06
2019-01-04T07:59:26.684Z,11.21
2019-01-04T08:01:57.424Z,10.89
2019-01-04T08:04:28.841Z,10.36
2019-01-04T08:07:00.811Z,10.76
2019-01-04T08:09:32.664Z,10.67
2019-01-04T08:12:07.499Z,10.59
2019-01-04T08:14:40.502Z,10.97
2019-01-04T08:17:11.907Z,11.14
2019-01-04T08:19:42.811Z,11.36
2019-01-04T08:22:13.606Z,10.74
2019-01-04T08:24:45.433Z,11.23
2019-01-04T08:27:18.089Z,11.24
2019-01-04T08:29:49.753Z,11.33
2019-01-04T08:32:21.115Z,11.37
2019-01-04T08:34:52.140Z,11.32
2019-01-04T08:37:24.762Z,11.12
2019-01-04T08:39:56.637Z,10.76
2019-01-04T08:42:28.863Z,10.94
2019-01-04T08:45:00.800Z,11.20
2019-01-04T08:47:31.585Z,10.90
2019-01-04T08:50:03.225Z,11.18
2019-01-04T08:52:34.265Z,11.42
2019-01-04T08:55:08.367Z,11.39
2019-01-04T08:57:40.529Z,11.50
2019-01-04T09:00:13.528Z,11.57
2019-01-04T09:02:46.208Z,11.35
2019-01-04T09:05:19.504Z,11.40
2019-01-04T09:07:51.179Z,11.66
2019-01-04T09:10:23.329Z,11.93
2019-01-04T09:12:56.654Z,12.08
2019-01-04T09:15:28.030Z,12.19
2019-01-04T09:18:01.148Z,11.66
2019-01-04T09:20:31.447Z,11.57
2019-01-04T09:23:03.681Z,11.69
2019-01-04T09:25:36.536Z,11.60
2019-01-04T09:28:07.252Z,11.74
2019-01-04T09:30:41.813Z,11.90
2019-01-04T09:33:15.759Z,11.38
2019-01-04T09:35:47.275Z,11.83
2019-01-04T09:38:23.560Z,11.84
2019-01-04T09:41:32.283Z,11.52
2019-01-04T09:44:05.143Z,11.60
2019-01-04T09:46:38.147Z,11.79
2019-01-04T09:49:10.581Z,11.93
2019-01-04T09:51:44.009Z,12.07
2019-01-04T09:54:15.666Z,12.16
2019-01-04T09:56:47.778Z,12.11
2019-01-04T09:59:19.457Z,11.96
2019-01-04T10:01:51.222Z,12.06
2019-01-04T10:04:24.560Z,12.04
2019-01-04T10:06:56.234Z,11.88
2019-01-04T10:09:27.324Z,11.70
2019-01-04T10:11:57.703Z,11.29
2019-01-04T10:14:33.415Z,11.75
2019-01-04T10:17:05.726Z,11.66
2019-01-04T10:19:36.859Z,11.74
2019-01-04T10:22:11.271Z,11.49
2019-01-04T10:24:43.862Z,11.87
2019-01-04T10:27:16.640Z,11.96
2019-01-04T10:29:49.461Z,12.34
2019-01-04T10:32:20.173Z,12.25
2019-01-04T10:34:52.383Z,12.33
2019-01-04T10:37:23.953Z,12.45
2019-01-04T10:39:55.618Z,12.25
2019-01-04T10:42:27.767Z,12.14
2019-01-04T10:44:59.346Z,11.92
2019-01-04T10:47:31.314Z,11.89
2019-01-04T10:50:03.962Z,12.03
2019-01-04T10:52:35.022Z,12.14
2019-01-04T10:55:06.344Z,12.09
2019-01-04T10:57:36.637Z,12.17
2019-01-04T11:00:09.964Z,11.91
2019-01-04T11:02:47.253Z,11.69
2019-01-04T11:05:19.073Z,12.03
2019-01-04T11:07:51.460Z,12.13
2019-01-04T11:10:25.050Z,12.30
2019-01-04T11:12:57.203Z,11.91
2019-01-04T11:15:29.563Z,12.00
2019-01-04T11:18:03.327Z,11.44
2019-01-04T11:20:51.968Z,12.07
2019-01-04T11:24:10.405Z,11.82
2019-01-04T11:27:12.680Z,12.10
2019-01-04T11:30:20.617Z,12.43
2019-01-04T11:33:09.895Z,12.11
2019-01-04T11:36:00.709Z,12.13
2019-01-04T11:39:11.445Z,11.95
2019-01-04T11:42:23.955Z,11.47
2019-01-04T11:45:42.828Z,11.81
2019-01-04T11:48:37.863Z,11.45
2019-01-04T11:51:29.141Z,11.45
2019-01-04T11:54:00.902Z,11.34
2019-01-04T11:56:35.531Z,11.46
2019-01-04T11:59:07.452Z,11.79
2019-01-04T12:01:39.147Z,11.84
2019-01-04T12:04:09.975Z,11.87
2019-01-04T12:06:41.240Z,12.01
2019-01-04T12:09:11.496Z,11.72
2019-01-04T12:11:41.792Z,11.53
2019-01-04T12:14:14.066Z,11.83
2019-01-04T12:16:46.511Z,11.64
2019-01-04T12:19:17.846Z,12.00
2019-01-04T12:21:48.175Z,11.70
2019-01-04T12:24:21.664Z,12.05
2019-01-04T12:26:52.142Z,11.90
2019-01-04T12:29:24.634Z,12.17
2019-01-04T12:31:56.435Z,11.67
2019-01-04T12:34:27.942Z,11.67
2019-01-04T12:36:59.909Z,12.04
2019-01-04T12:39:30.217Z,12.48
2019-01-04T12:42:00.500Z,11.93
2019-01-04T12:44:30.833Z,11.83
2019-01-04T12:47:03.510Z,11.35
2019-01-04T12:49:36.198Z,11.10
2019-01-04T12:52:06.711Z,11.16
2019-01-04T12:54:37.105Z,11.49
2019-01-04T12:57:07.417Z,11.43
2019-01-04T12:59:38.666Z,11.57
2019-01-04T13:02:09.426Z,11.37
2019-01-04T13:04:42.398Z,11.78
2019-01-04T13:07:15.037Z,11.94
2019-01-04T13:09:49.020Z,11.79
2019-01-04T13:12:20.368Z,12.14
2019-01-04T13:14:51.445Z,12.03
2019-01-04T13:17:22.077Z,11.86
2019-01-04T13:19:55.362Z,11.88
2019-01-04T13:22:27.758Z,11.75
2019-01-04T13:24:58.574Z,12.18
2019-01-04T13:27:29.308Z,12.00
2019-01-04T13:30:00.481Z,11.69
2019-01-04T13:32:30.841Z,11.47
2019-01-04T13:35:02.975Z,11.95
2019-01-04T13:37:33.954Z,11.21
2019-01-04T13:40:05.503Z,10.95
2019-01-04T13:42:36.718Z,10.74
2019-01-04T13:45:08.284Z,11.00
2019-01-04T13:47:38.959Z,10.21
2019-01-04T13:50:11.417Z,10.96
2019-01-04T13:52:41.884Z,10.63
2019-01-04T13:55:12.323Z,10.78
2019-01-04T13:57:42.644Z,11.20
2019-01-04T14:00:14.404Z,11.30
2019-01-04T14:02:48.354Z,11.20
2019-01-04T14:05:21.514Z,11.11
2019-01-04T14:07:55.268Z,11.31
2019-01-04T14:10:26.094Z,11.24
2019-01-04T14:12:59.926Z,11.20
2019-01-04T14:15:31.348Z,11.28
2019-01-04T14:18:03.720Z,11.57
2019-01-04T14:20:38.350Z,11.19
2019-01-04T14:23:10.520Z,11.34
2019-01-04T14:25:40.852Z,11.31
2019-01-04T14:28:13.202Z,11.24
2019-01-04T14:30:46.890Z,10.96
2019-01-04T14:33:18.274Z,10.94
2019-01-04T14:35:51.144Z,10.89
2019-01-04T14:38:21.877Z,10.92
2019-01-04T14:40:53.226Z,10.85
2019-01-04T14:43:24.799Z,10.83
2019-01-04T14:45:58.195Z,10.87
2019-01-04T14:48:29.331Z,10.62
2019-01-04T14:51:01.922Z,10.67
2019-01-04T14:53:32.213Z,10.38
2019-01-04T14:56:03.510Z,10.37
2019-01-04T14:58:34.643Z,10.29
2019-01-04T15:01:06.336Z,10.99
2019-01-04T15:03:36.831Z,10.69
2019-01-04T15:06:08.645Z,10.38
2019-01-04T15:08:38.922Z,10.22
2019-01-04T15:11:11.184Z,10.41
2019-01-04T15:13:41.467Z,10.29
2019-01-04T15:16:11.797Z,10.66
2019-01-04T15:18:43.108Z,10.77
2019-01-04T15:21:15.503Z,11.08
2019-01-04T15:23:46.117Z,10.24
2019-01-04T15:26:17.261Z,10.20
2019-01-04T15:28:48.406Z,10.04
2019-01-04T15:31:19.939Z,10.28
2019-01-04T15:33:51.292Z,10.61
2019-01-04T15:36:23.855Z,10.78
2019-01-04T15:38:58.507Z,10.75
2019-01-04T15:41:29.624Z,10.79
2019-01-04T15:44:00.901Z,10.75
2019-01-04T15:46:31.842Z,10.71
2019-01-04T15:49:02.384Z,10.58
2019-01-04T15:51:37.353Z,10.50
2019-01-04T15:54:08.636Z,10.74
2019-01-04T15:56:42.350Z,10.95
2019-01-04T15:59:14.448Z,10.85
2019-01-04T16:01:45.910Z,11.14
2019-01-04T16:04:18.587Z,10.90
2019-01-04T16:06:50.709Z,11.07
2019-01-04T16:09:21.830Z,10.88
2019-01-04T16:11:53.286Z,10.75
2019-01-04T16:14:24.619Z,10.06
2019-01-04T16:16:55.296Z,10.69
2019-01-04T16:19:27.514Z,10.27
2019-01-04T16:22:04.465Z,10.35
2019-01-04T16:24:35.575Z,10.58
2019-01-04T16:27:07.480Z,10.63
2019-01-04T16:29:37.950Z,10.37
2019-01-04T16:32:09.088Z,10.81
2019-01-04T16:34:40.805Z,10.70
2019-01-04T16:37:12.904Z,10.55
2019-01-04T16:39:43.479Z,10.91
2019-01-04T16:42:14.957Z,10.61
2019-01-04T16:44:46.066Z,10.67
2019-01-04T16:47:16.939Z,10.03
2019-01-04T16:49:48.581Z,10.12
2019-01-04T16:52:20.998Z,10.29
2019-01-04T16:54:53.332Z,10.75
2019-01-04T16:57:25.191Z,10.62
2019-01-04T16:59:56.579Z,10.34
2019-01-04T17:02:28.026Z,9.99
2019-01-04T17:05:01.207Z,10.00
2019-01-04T17:07:33.011Z,10.05
2019-01-04T17:10:04.971Z,10.08
2019-01-04T17:12:36.873Z,10.04
2019-01-04T17:15:08.396Z,10.07
2019-01-04T17:17:40.051Z,10.33
2019-01-04T17:20:11.575Z,10.24
2019-01-04T17:22:45.828Z,10.17
2019-01-04T17:25:16.727Z,10.16
2019-01-04T17:27:48.602Z,10.27
2019-01-04T17:30:19.589Z,9.97
2019-01-04T17:32:50.330Z,9.89
2019-01-04T17:35:21.343Z,9.80
2019-01-04T17:37:54.431Z,9.93
2019-01-04T17:40:29.212Z,10.21
2019-01-04T17:43:00.998Z,10.09
2019-01-04T17:45:33.435Z,10.40
2019-01-04T17:48:06.325Z,10.42
2019-01-04T17:50:37.677Z,10.67
2019-01-04T17:53:08.851Z,10.46
2019-01-04T17:55:43.346Z,10.75
2019-01-04T17:58:15.703Z,10.58
2019-01-04T18:00:46.552Z,10.53
2019-01-04T18:03:16.950Z,10.56
2019-01-04T18:05:47.891Z,9.99
2019-01-04T18:08:18.829Z,10.48
2019-01-04T18:10:49.849Z,10.24
2019-01-04T18:13:24.910Z,9.91
2019-01-04T18:15:56.026Z,10.05
2019-01-04T18:18:26.878Z,10.18
2019-01-04T18:20:57.379Z,10.49
2019-01-04T18:23:29.425Z,10.45
2019-01-04T18:26:00.710Z,10.36
2019-01-04T18:28:32.899Z,10.19
2019-01-04T18:31:04.109Z,10.19
2019-01-04T18:33:34.928Z,10.45
2019-01-04T18:36:08.407Z,10.60
2019-01-04T18:38:41.133Z,10.36
2019-01-04T18:41:13.331Z,10.39
2019-01-04T18:43:45.569Z,10.22
2019-01-04T18:46:17.821Z,10.39
2019-01-04T18:48:50.993Z,10.55
2019-01-04T18:51:27.162Z,10.60
2019-01-04T18:54:03.240Z,10.41
2019-01-04T18:56:54.208Z,10.28
2019-01-04T18:59:25.578Z,10.04
2019-01-04T19:01:58.771Z,10.11
2019-01-04T19:04:37.128Z,10.33
2019-01-04T19:07:06.412Z,10.37
2019-01-04T19:09:56.347Z,10.24
2019-01-04T19:12:54.228Z,10.12
2019-01-04T19:15:28.494Z,10.18
2019-01-04T19:18:19.883Z,10.09
2019-01-04T19:21:09.343Z,9.97
2019-01-04T19:23:40.787Z,10.24
2019-01-04T19:26:15.102Z,10.16
2019-01-04T19:28:46.429Z,10.35
2019-01-04T19:31:19.855Z,10.29
2019-01-04T19:33:52.712Z,10.17
2019-01-04T19:36:25.876Z,10.56
2019-01-04T19:38:57.314Z,10.38
2019-01-04T19:41:30.032Z,10.60
2019-01-04T19:44:02.808Z,10.13
2019-01-04T19:46:36.784Z,10.29
2019-01-04T19:49:08.404Z,10.40
2019-01-04T19:51:41.402Z,10.06
2019-01-04T19:54:14.624Z,9.97
2019-01-04T19:56:50.005Z,10.53
2019-01-04T19:59:24.101Z,10.72
2019-01-04T20:01:56.258Z,10.97
2019-01-04T20:04:30.734Z,10.98
2019-01-04T20:08:01.217Z,11.03
2019-01-04T20:11:51.443Z,10.64
2019-01-04T20:15:34.678Z,10.86
2019-01-04T20:18:25.063Z,11.08
2019-01-04T20:21:13.568Z,10.55
2019-01-04T20:24:20.664Z,10.70
2019-01-04T20:27:08.906Z,10.49
2019-01-04T20:29:59.432Z,10.85
2019-01-04T20:33:05.292Z,10.74
2019-01-04T20:36:01.137Z,10.94
2019-01-04T20:38:58.602Z,11.12
2019-01-04T20:42:08.263Z,11.04
2019-01-04T20:45:22.966Z,10.91
2019-01-04T20:48:10.931Z,10.80
2019-01-04T20:51:29.912Z,11.02
2019-01-04T20:54:36.762Z,10.87
2019-01-04T20:57:27.530Z,10.89
2019-01-04T21:00:12.952Z,11.12
2019-01-04T21:03:10.334Z,11.08
2019-01-04T21:06:06.107Z,11.03
2019-01-04T21:08:58.912Z,11.19
2019-01-04T21:11:45.819Z,11.14
2019-01-04T21:14:34.188Z,11.01
2019-01-04T21:17:24.797Z,10.84
2019-01-04T21:20:13.377Z,11.17
2019-01-04T21:23:03.574Z,11.34
2019-01-04T21:25:54.124Z,11.38
2019-01-04T21:28:48.174Z,11.37
2019-01-04T21:31:39.846Z,11.18
2019-01-04T21:34:46.396Z,11.23
2019-01-04T21:37:35.405Z,10.93
2019-01-04T21:40:28.143Z,10.75
2019-01-04T21:43:21.685Z,10.77
2019-01-04T21:46:27.944Z,10.82
2019-01-04T21:49:16.709Z,10.71
2019-01-04T21:52:05.596Z,10.84
2019-01-04T21:55:11.806Z,10.81
2019-01-04T21:58:00.622Z,10.58
2019-01-04T22:01:00.349Z,10.52
2019-01-04T22:04:06.708Z,10.23
2019-01-04T22:06:55.787Z,10.13
2019-01-04T22:09:51.861Z,10.34
2019-01-04T22:12:39.373Z,10.25
2019-01-04T22:15:39.003Z,10.33
2019-01-04T22:18:28.376Z,10.17
2019-01-04T22:21:20.562Z,10.20
2019-01-04T22:24:09.567Z,10.10
2019-01-04T22:26:57.285Z,10.42
2019-01-04T22:29:56.493Z,10.06
2019-01-04T22:32:50.420Z,9.97
2019-01-04T22:35:55.873Z,10.27
2019-01-04T22:38:46.405Z,10.25
2019-01-04T22:41:42.965Z,10.36
2019-01-04T22:47:53.247Z,9.89
2019-01-04T22:50:42.591Z,10.18
2019-01-04T22:53:31.958Z,10.27
2019-01-04T22:56:22.173Z,10.29
2019-01-04T22:59:11.125Z,10.28
2019-01-04T23:02:02.050Z,10.27
2019-01-04T23:04:54.772Z,9.83
2019-01-04T23:07:58.077Z,10.28
2019-01-04T23:10:47.139Z,10.17
2019-01-04T23:13:38.418Z,10.32
2019-01-04T23:16:32.240Z,10.29
2019-01-04T23:19:27.342Z,10.14
2019-01-04T23:22:22.874Z,10.02
2019-01-04T23:25:27.076Z,10.36
2019-01-04T23:28:25.262Z,10.00
2019-01-04T23:31:13.708Z,10.01
2019-01-04T23:34:09.126Z,10.43
2019-01-04T23:36:58.530Z,10.63
2019-01-04T23:39:48.585Z,10.38
2019-01-04T23:42:38.432Z,10.57
2019-01-04T23:45:34.001Z,10.75
2019-01-04T23:48:29.769Z,10.95
2019-01-04T23:51:21.662Z,10.91
2019-01-04T23:54:10.505Z,10.86
2019-01-04T23:57:09.048Z,10.93
